Florencia — IBPD — position and weather

sailwx.info

Track history (hours):
 
Tides and Currents Weather Stations Pressure Air Temp Water Temp Dewpoint Dewpoint Depression Visibility Wind Speed Wind Dir Waves Ship Positions

Florencia

Last reported at 2015-Jul-30 03:33 UTC. Time now 2015-Jul-30 04:02 UTC.
Position N 43°00' E 006°54'.

Length 186 m; draft 6.5 m.

Type: Passenger vessel. MMSI: 247105900.

Date/timePositionNaut miles runAvg speedWind from/ knotsBaromVisibWave heightAir tempDewpointWater temp
2015-Jul-30 03:33N 43°00' E 006°54'2019.9
2015-Jul-30 02:33N 43°14' E 007°14'2120.0
2015-Jul-30 01:30N 43°28' E 007°35'2920.7
2015-Jul-30 00:06N 43°47' E 008°05'1920.7
2015-Jul-29 23:10N 44°03' E 008°22'1320.7
2015-Jul-29 22:33N 44°14' E 008°30'5 5.0
2015-Jul-29 21:33N 44°19' E 008°30'0 0.0
2015-Jul-29 20:33N 44°19' E 008°30'0 0.0
2015-Jul-29 19:33N 44°19' E 008°30'0 0.0
2015-Jul-29 18:33N 44°19' E 008°30'0 0.0
2015-Jul-29 17:33N 44°19' E 008°30'1 0.8
2015-Jul-29 16:33N 44°18' E 008°31'5215.4
2015-Jul-29 13:12N 43°36' E 007°48'1319.7
2015-Jul-29 12:33N 43°28' E 007°36'2020.2
2015-Jul-29 11:33N 43°14' E 007°15'2020.0
2015-Jul-29 10:33N 43°01' E 006°55'2120.2
2015-Jul-29 09:32N 42°48' E 006°33'2520.3
2015-Jul-29 08:19N 42°37' E 006°03'1520.0
2015-Jul-29 07:33N 42°30' E 005°44'2020.1
2015-Jul-29 06:33N 42°22' E 005°19'2020.2
2015-Jul-29 05:33N 42°13' E 004°54'2020.0
2015-Jul-29 04:33N 42°05' E 004°30'33 1.7
2015-Jul-28 08:27N 42°36' E 004°43'1820.3
2015-Jul-28 07:33N 42°45' E 005°05'2019.9
2015-Jul-28 06:33N 42°54' E 005°29'3919.5
2015-Jul-28 04:33N 42°55' E 006°23'1919.3
2015-Jul-28 03:33N 43°03' E 006°47'2120.7
2015-Jul-28 02:33N 43°17' E 007°08'2220.9
2015-Jul-28 01:31N 43°30' E 007°31'5221.1
2015-Jul-27 23:03N 44°06' E 008°24'1020.7
2015-Jul-27 22:34N 44°15' E 008°31'4 3.9
2015-Jul-27 21:33N 44°19' E 008°30'0 0.0
2015-Jul-27 20:33N 44°19' E 008°30'0 0.0
2015-Jul-27 19:33N 44°19' E 008°30'0 0.0
2015-Jul-27 18:33N 44°19' E 008°30'0 0.0
2015-Jul-27 17:33N 44°19' E 008°30'0 0.0
2015-Jul-27 16:33N 44°19' E 008°30'0 0.0
2015-Jul-27 15:33N 44°19' E 008°30'0 0.0
2015-Jul-27 14:33N 44°19' E 008°30'0 0.0
2015-Jul-27 13:33N 44°19' E 008°30'0 0.0
2015-Jul-27 12:33N 44°19' E 008°30'0 0.2
2015-Jul-27 11:33N 44°19' E 008°30'0 0.0
2015-Jul-27 10:33N 44°19' E 008°30'0 0.0
2015-Jul-27 09:30N 44°19' E 008°30'0 0.0
2015-Jul-27 08:33N 44°19' E 008°30'0 0.0
2015-Jul-27 07:30N 44°19' E 008°30'0 0.0
2015-Jul-27 06:18N 44°19' E 008°30'0 0.0
2015-Jul-27 05:27N 44°19' E 008°30'0 0.0
2015-Jul-27 04:33N 44°19' E 008°30'0 0.0
2015-Jul-27 03:33N 44°19' E 008°30'0 0.0
2015-Jul-27 02:33N 44°19' E 008°30'0 0.0
2015-Jul-27 01:33N 44°19' E 008°30'0 0.0
2015-Jul-27 00:33N 44°19' E 008°30'0 0.2
2015-Jul-26 23:24N 44°19' E 008°30'0 0.0
2015-Jul-26 22:30N 44°19' E 008°30'0 0.0
2015-Jul-26 21:33N 44°19' E 008°30'0 0.0
2015-Jul-26 20:27N 44°19' E 008°30'0 0.0
2015-Jul-26 19:30N 44°19' E 008°30'0 0.0
2015-Jul-26 18:30N 44°19' E 008°30'0 0.0
2015-Jul-26 17:33N 44°19' E 008°30'6 5.7
2015-Jul-26 16:33N 44°13' E 008°30'6419.1
2015-Jul-26 13:11N 43°27' E 007°27'1219.4
2015-Jul-26 12:33N 43°20' E 007°14'2019.8
2015-Jul-26 11:33N 43°08' E 006°52'6618.9
2015-Jul-26 08:03N 42°41' E 005°29'918.6
2015-Jul-26 07:33N 42°38' E 005°18'27 1.2
2015-Jul-25 09:26N 42°37' E 004°41'1820.5
2015-Jul-25 08:33N 42°45' E 005°03'6020.0
2015-Jul-25 05:32N 42°56' E 006°24'2020.5
2015-Jul-25 04:33N 43°07' E 006°47'2120.6
2015-Jul-25 03:33N 43°20' E 007°09'3020.6
2015-Jul-25 02:05N 43°38' E 007°42'1120.3
2015-Jul-25 01:33N 43°44' E 007°54'2720.0
2015-Jul-25 00:12N 44°03' E 008°22'1320.0
2015-Jul-24 23:33N 44°14' E 008°31'5 4.5
2015-Jul-24 22:31N 44°19' E 008°30'0 0.0
2015-Jul-24 21:31N 44°19' E 008°30'0 0.0
2015-Jul-24 20:31N 44°19' E 008°30'0 0.0
2015-Jul-24 19:31N 44°19' E 008°30'0 0.0
2015-Jul-24 18:31N 44°19' E 008°30'0 0.0
2015-Jul-24 17:25N 44°19' E 008°30'0 0.0
2015-Jul-24 16:31N 44°19' E 008°30'6 6.3
2015-Jul-24 15:33N 44°13' E 008°30'1817.6
2015-Jul-24 14:33N 43°58' E 008°18'2018.6
2015-Jul-24 13:30N 43°44' E 007°58'1718.4
2015-Jul-24 12:33N 43°33' E 007°40'1919.2
2015-Jul-24 11:33N 43°20' E 007°20'1919.3
2015-Jul-24 10:33N 43°08' E 006°60'1919.4
2015-Jul-24 09:33N 42°56' E 006°39'2019.8
2015-Jul-24 08:33N 42°46' E 006°15'2020.0
2015-Jul-24 07:33N 42°36' E 005°52'2020.3
2015-Jul-24 06:34N 42°27' E 005°27'2020.1
2015-Jul-24 05:33N 42°18' E 005°03'2020.3
2015-Jul-24 04:33N 42°09' E 004°38'2120.3
2015-Jul-24 03:32N 41°59' E 004°14'5020.3
2015-Jul-24 01:05N 41°38' E 003°13'1220.3
2015-Jul-24 00:30N 41°33' E 002°59'1920.4
2015-Jul-23 23:33N 41°25' E 002°36'2020.3
2015-Jul-23 22:34N 41°16' E 002°11'5 5.4
2015-Jul-23 21:33N 41°22' E 002°11'0 0.0
2015-Jul-23 20:33N 41°22' E 002°11'0 0.0
2015-Jul-23 19:33N 41°22' E 002°11'0 0.0
2015-Jul-23 18:21N 41°22' E 002°11'0 0.1
2015-Jul-23 16:33N 41°22' E 002°11'10 9.1
2015-Jul-23 15:28N 41°22' E 002°24'7619.2
2015-Jul-23 11:31N 42°06' E 003°47'1920.2
2015-Jul-23 10:33N 42°18' E 004°08'2020.3
2015-Jul-23 09:34N 42°30' E 004°29'2020.3
2015-Jul-23 08:33N 42°42' E 004°52'2121.0
2015-Jul-23 07:33N 42°51' E 005°18'4620.8
2015-Jul-23 05:22N 42°56' E 006°20'1720.9
2015-Jul-23 04:33N 43°00' E 006°42'2121.4
2015-Jul-23 03:33N 43°14' E 007°05'6921.0
2015-Jul-23 00:17N 43°58' E 008°18'1520.6
2015-Jul-22 23:33N 44°11' E 008°29'8 8.0
2015-Jul-22 22:33N 44°19' E 008°30'0 0.0
2015-Jul-22 21:33N 44°19' E 008°30'0 0.0
2015-Jul-22 20:34N 44°19' E 008°30'0 0.0
2015-Jul-22 19:34N 44°19' E 008°30'0 0.0
2015-Jul-22 18:33N 44°19' E 008°30'0 0.0
2015-Jul-22 17:33N 44°19' E 008°30'10 9.8
2015-Jul-22 16:33N 44°09' E 008°28'2020.2
2015-Jul-22 15:33N 43°53' E 008°11'2019.6
2015-Jul-22 14:33N 43°40' E 007°50'2019.6
2015-Jul-22 13:33N 43°27' E 007°30'2019.7
2015-Jul-22 12:33N 43°14' E 007°09'2019.6
2015-Jul-22 11:33N 43°02' E 006°49'1919.3
2015-Jul-22 10:33N 42°50' E 006°27'2019.7
2015-Jul-22 09:33N 42°41' E 006°04'2019.9
2015-Jul-22 08:33N 42°32' E 005°40'2020.4
2015-Jul-22 07:34N 42°22' E 005°15'2020.4
2015-Jul-22 06:34N 42°13' E 004°51'2020.3
2015-Jul-22 05:33N 42°04' E 004°26'2120.4
2015-Jul-22 04:33N 41°55' E 004°01'2120.0
2015-Jul-22 03:30N 41°46' E 003°36'2319.6
2015-Jul-22 02:19N 41°36' E 003°08'1620.3
2015-Jul-22 01:33N 41°29' E 002°49'2020.4
2015-Jul-22 00:33N 41°21' E 002°24'1010.3
2015-Jul-21 23:33N 41°21' E 002°11'0 0.4
2015-Jul-21 22:33N 41°22' E 002°11'0 0.0
2015-Jul-21 21:33N 41°22' E 002°11'0 0.0
2015-Jul-21 20:33N 41°22' E 002°11'0 0.0
2015-Jul-21 18:21N 41°22' E 002°11'0 0.0
2015-Jul-21 17:33N 41°22' E 002°11'0 0.0
2015-Jul-21 16:33N 41°22' E 002°11'4 4.4
2015-Jul-21 15:33N 41°18' E 002°13'1817.5
2015-Jul-21 14:33N 41°26' E 002°34'1918.7
2015-Jul-21 13:33N 41°35' E 002°56'1918.9
2015-Jul-21 12:33N 41°43' E 003°18'2019.6
2015-Jul-21 11:33N 41°53' E 003°42'4719.2
2015-Jul-21 09:07N 42°14' E 004°38'1119.6
2015-Jul-21 08:32N 42°19' E 004°51'3919.9
2015-Jul-21 06:33N 42°38' E 005°38'2920.0
2015-Jul-21 05:07N 42°50' E 006°14'1420.4
2015-Jul-21 04:27N 42°55' E 006°31'1820.1
2015-Jul-21 03:34N 43°05' E 006°51'2020.0
2015-Jul-21 02:33N 43°18' E 007°12'2120.1
2015-Jul-21 01:31N 43°31' E 007°35'4420.5
2015-Jul-20 23:23N 44°00' E 008°19'1720.0
2015-Jul-20 22:33N 44°15' E 008°31'4 3.9
2015-Jul-20 21:29N 44°19' E 008°30'0 0.0
2015-Jul-20 20:29N 44°19' E 008°30'0 0.0
2015-Jul-20 19:32N 44°19' E 008°30'0 0.0
2015-Jul-20 18:32N 44°19' E 008°30'0 0.0
2015-Jul-20 17:32N 44°19' E 008°30'0 0.0
2015-Jul-20 16:32N 44°19' E 008°30'0 0.0
2015-Jul-20 15:32N 44°19' E 008°30'0 0.0
2015-Jul-20 14:32N 44°19' E 008°30'0 0.0
2015-Jul-20 13:32N 44°19' E 008°30'0 0.0
2015-Jul-20 12:23N 44°19' E 008°30'0 0.0
2015-Jul-20 11:26N 44°19' E 008°30'0 0.0
2015-Jul-20 10:23N 44°19' E 008°30'0 0.0
2015-Jul-20 09:26N 44°19' E 008°30'0 0.0
2015-Jul-20 08:29N 44°19' E 008°30'0 0.0
2015-Jul-20 07:32N 44°19' E 008°30'0 0.0
2015-Jul-20 06:32N 44°19' E 008°30'0 0.0
2015-Jul-20 05:32N 44°19' E 008°30'0 0.0
2015-Jul-20 04:32N 44°19' E 008°30'  
Track history (hours):
 
Tides and Currents Weather Stations Pressure Air Temp Water Temp Dewpoint Dewpoint Depression Visibility Wind Speed Wind Dir Waves Ship Positions

Florencia

Last reported at 2015-Jul-30 03:33 UTC. Time now 2015-Jul-30 04:02 UTC.
Position N 43°00' E 006°54'.

Length 186 m; draft 6.5 m.

Type: Passenger vessel. MMSI: 247105900.

Date/timePositionNaut miles runAvg speedWind from/ knotsBaromVisibWave heightAir tempDewpointWater temp
2015-Jul-30 03:33N 43°00' E 006°54'2019.9
2015-Jul-30 02:33N 43°14' E 007°14'2120.0
2015-Jul-30 01:30N 43°28' E 007°35'2920.7
2015-Jul-30 00:06N 43°47' E 008°05'1920.7
2015-Jul-29 23:10N 44°03' E 008°22'1320.7
2015-Jul-29 22:33N 44°14' E 008°30'5 5.0
2015-Jul-29 21:33N 44°19' E 008°30'0 0.0
2015-Jul-29 20:33N 44°19' E 008°30'0 0.0
2015-Jul-29 19:33N 44°19' E 008°30'0 0.0
2015-Jul-29 18:33N 44°19' E 008°30'0 0.0
2015-Jul-29 17:33N 44°19' E 008°30'1 0.8
2015-Jul-29 16:33N 44°18' E 008°31'5215.4
2015-Jul-29 13:12N 43°36' E 007°48'1319.7
2015-Jul-29 12:33N 43°28' E 007°36'2020.2
2015-Jul-29 11:33N 43°14' E 007°15'2020.0
2015-Jul-29 10:33N 43°01' E 006°55'2120.2
2015-Jul-29 09:32N 42°48' E 006°33'2520.3
2015-Jul-29 08:19N 42°37' E 006°03'1520.0
2015-Jul-29 07:33N 42°30' E 005°44'2020.1
2015-Jul-29 06:33N 42°22' E 005°19'2020.2
2015-Jul-29 05:33N 42°13' E 004°54'2020.0
2015-Jul-29 04:33N 42°05' E 004°30'33 1.7
2015-Jul-28 08:27N 42°36' E 004°43'1820.3
2015-Jul-28 07:33N 42°45' E 005°05'2019.9
2015-Jul-28 06:33N 42°54' E 005°29'3919.5
2015-Jul-28 04:33N 42°55' E 006°23'1919.3
2015-Jul-28 03:33N 43°03' E 006°47'2120.7
2015-Jul-28 02:33N 43°17' E 007°08'2220.9
2015-Jul-28 01:31N 43°30' E 007°31'5221.1
2015-Jul-27 23:03N 44°06' E 008°24'1020.7
2015-Jul-27 22:34N 44°15' E 008°31'4 3.9
2015-Jul-27 21:33N 44°19' E 008°30'0 0.0
2015-Jul-27 20:33N 44°19' E 008°30'0 0.0
2015-Jul-27 19:33N 44°19' E 008°30'0 0.0
2015-Jul-27 18:33N 44°19' E 008°30'0 0.0
2015-Jul-27 17:33N 44°19' E 008°30'0 0.0
2015-Jul-27 16:33N 44°19' E 008°30'0 0.0
2015-Jul-27 15:33N 44°19' E 008°30'0 0.0
2015-Jul-27 14:33N 44°19' E 008°30'0 0.0
2015-Jul-27 13:33N 44°19' E 008°30'0 0.0
2015-Jul-27 12:33N 44°19' E 008°30'0 0.2
2015-Jul-27 11:33N 44°19' E 008°30'0 0.0
2015-Jul-27 10:33N 44°19' E 008°30'0 0.0
2015-Jul-27 09:30N 44°19' E 008°30'0 0.0
2015-Jul-27 08:33N 44°19' E 008°30'0 0.0
2015-Jul-27 07:30N 44°19' E 008°30'0 0.0
2015-Jul-27 06:18N 44°19' E 008°30'0 0.0
2015-Jul-27 05:27N 44°19' E 008°30'0 0.0
2015-Jul-27 04:33N 44°19' E 008°30'0 0.0
2015-Jul-27 03:33N 44°19' E 008°30'0 0.0
2015-Jul-27 02:33N 44°19' E 008°30'0 0.0
2015-Jul-27 01:33N 44°19' E 008°30'0 0.0
2015-Jul-27 00:33N 44°19' E 008°30'0 0.2
2015-Jul-26 23:24N 44°19' E 008°30'0 0.0
2015-Jul-26 22:30N 44°19' E 008°30'0 0.0
2015-Jul-26 21:33N 44°19' E 008°30'0 0.0
2015-Jul-26 20:27N 44°19' E 008°30'0 0.0
2015-Jul-26 19:30N 44°19' E 008°30'0 0.0
2015-Jul-26 18:30N 44°19' E 008°30'0 0.0
2015-Jul-26 17:33N 44°19' E 008°30'6 5.7
2015-Jul-26 16:33N 44°13' E 008°30'6419.1
2015-Jul-26 13:11N 43°27' E 007°27'1219.4
2015-Jul-26 12:33N 43°20' E 007°14'2019.8
2015-Jul-26 11:33N 43°08' E 006°52'6618.9
2015-Jul-26 08:03N 42°41' E 005°29'918.6
2015-Jul-26 07:33N 42°38' E 005°18'27 1.2
2015-Jul-25 09:26N 42°37' E 004°41'1820.5
2015-Jul-25 08:33N 42°45' E 005°03'6020.0
2015-Jul-25 05:32N 42°56' E 006°24'2020.5
2015-Jul-25 04:33N 43°07' E 006°47'2120.6
2015-Jul-25 03:33N 43°20' E 007°09'3020.6
2015-Jul-25 02:05N 43°38' E 007°42'1120.3
2015-Jul-25 01:33N 43°44' E 007°54'2720.0
2015-Jul-25 00:12N 44°03' E 008°22'1320.0
2015-Jul-24 23:33N 44°14' E 008°31'5 4.5
2015-Jul-24 22:31N 44°19' E 008°30'0 0.0
2015-Jul-24 21:31N 44°19' E 008°30'0 0.0
2015-Jul-24 20:31N 44°19' E 008°30'0 0.0
2015-Jul-24 19:31N 44°19' E 008°30'0 0.0
2015-Jul-24 18:31N 44°19' E 008°30'0 0.0
2015-Jul-24 17:25N 44°19' E 008°30'0 0.0
2015-Jul-24 16:31N 44°19' E 008°30'6 6.3
2015-Jul-24 15:33N 44°13' E 008°30'1817.6
2015-Jul-24 14:33N 43°58' E 008°18'2018.6
2015-Jul-24 13:30N 43°44' E 007°58'1718.4
2015-Jul-24 12:33N 43°33' E 007°40'1919.2
2015-Jul-24 11:33N 43°20' E 007°20'1919.3
2015-Jul-24 10:33N 43°08' E 006°60'1919.4
2015-Jul-24 09:33N 42°56' E 006°39'2019.8
2015-Jul-24 08:33N 42°46' E 006°15'2020.0
2015-Jul-24 07:33N 42°36' E 005°52'2020.3
2015-Jul-24 06:34N 42°27' E 005°27'2020.1
2015-Jul-24 05:33N 42°18' E 005°03'2020.3
2015-Jul-24 04:33N 42°09' E 004°38'2120.3
2015-Jul-24 03:32N 41°59' E 004°14'5020.3
2015-Jul-24 01:05N 41°38' E 003°13'1220.3
2015-Jul-24 00:30N 41°33' E 002°59'1920.4
2015-Jul-23 23:33N 41°25' E 002°36'2020.3
2015-Jul-23 22:34N 41°16' E 002°11'5 5.4
2015-Jul-23 21:33N 41°22' E 002°11'0 0.0
2015-Jul-23 20:33N 41°22' E 002°11'0 0.0
2015-Jul-23 19:33N 41°22' E 002°11'0 0.0
2015-Jul-23 18:21N 41°22' E 002°11'0 0.1
2015-Jul-23 16:33N 41°22' E 002°11'10 9.1
2015-Jul-23 15:28N 41°22' E 002°24'7619.2
2015-Jul-23 11:31N 42°06' E 003°47'1920.2
2015-Jul-23 10:33N 42°18' E 004°08'2020.3
2015-Jul-23 09:34N 42°30' E 004°29'2020.3
2015-Jul-23 08:33N 42°42' E 004°52'2121.0
2015-Jul-23 07:33N 42°51' E 005°18'4620.8
2015-Jul-23 05:22N 42°56' E 006°20'1720.9
2015-Jul-23 04:33N 43°00' E 006°42'2121.4
2015-Jul-23 03:33N 43°14' E 007°05'6921.0
2015-Jul-23 00:17N 43°58' E 008°18'1520.6
2015-Jul-22 23:33N 44°11' E 008°29'8 8.0
2015-Jul-22 22:33N 44°19' E 008°30'0 0.0
2015-Jul-22 21:33N 44°19' E 008°30'0 0.0
2015-Jul-22 20:34N 44°19' E 008°30'0 0.0
2015-Jul-22 19:34N 44°19' E 008°30'0 0.0
2015-Jul-22 18:33N 44°19' E 008°30'0 0.0
2015-Jul-22 17:33N 44°19' E 008°30'10 9.8
2015-Jul-22 16:33N 44°09' E 008°28'2020.2
2015-Jul-22 15:33N 43°53' E 008°11'2019.6
2015-Jul-22 14:33N 43°40' E 007°50'2019.6
2015-Jul-22 13:33N 43°27' E 007°30'2019.7
2015-Jul-22 12:33N 43°14' E 007°09'2019.6
2015-Jul-22 11:33N 43°02' E 006°49'1919.3
2015-Jul-22 10:33N 42°50' E 006°27'2019.7
2015-Jul-22 09:33N 42°41' E 006°04'2019.9
2015-Jul-22 08:33N 42°32' E 005°40'2020.4
2015-Jul-22 07:34N 42°22' E 005°15'2020.4
2015-Jul-22 06:34N 42°13' E 004°51'2020.3
2015-Jul-22 05:33N 42°04' E 004°26'2120.4
2015-Jul-22 04:33N 41°55' E 004°01'2120.0
2015-Jul-22 03:30N 41°46' E 003°36'2319.6
2015-Jul-22 02:19N 41°36' E 003°08'1620.3
2015-Jul-22 01:33N 41°29' E 002°49'2020.4
2015-Jul-22 00:33N 41°21' E 002°24'1010.3
2015-Jul-21 23:33N 41°21' E 002°11'0 0.4
2015-Jul-21 22:33N 41°22' E 002°11'0 0.0
2015-Jul-21 21:33N 41°22' E 002°11'0 0.0
2015-Jul-21 20:33N 41°22' E 002°11'0 0.0
2015-Jul-21 18:21N 41°22' E 002°11'0 0.0
2015-Jul-21 17:33N 41°22' E 002°11'0 0.0
2015-Jul-21 16:33N 41°22' E 002°11'4 4.4
2015-Jul-21 15:33N 41°18' E 002°13'1817.5
2015-Jul-21 14:33N 41°26' E 002°34'1918.7
2015-Jul-21 13:33N 41°35' E 002°56'1918.9
2015-Jul-21 12:33N 41°43' E 003°18'2019.6
2015-Jul-21 11:33N 41°53' E 003°42'4719.2
2015-Jul-21 09:07N 42°14' E 004°38'1119.6
2015-Jul-21 08:32N 42°19' E 004°51'3919.9
2015-Jul-21 06:33N 42°38' E 005°38'2920.0
2015-Jul-21 05:07N 42°50' E 006°14'1420.4
2015-Jul-21 04:27N 42°55' E 006°31'1820.1
2015-Jul-21 03:34N 43°05' E 006°51'2020.0
2015-Jul-21 02:33N 43°18' E 007°12'2120.1
2015-Jul-21 01:31N 43°31' E 007°35'4420.5
2015-Jul-20 23:23N 44°00' E 008°19'1720.0
2015-Jul-20 22:33N 44°15' E 008°31'4 3.9
2015-Jul-20 21:29N 44°19' E 008°30'0 0.0
2015-Jul-20 20:29N 44°19' E 008°30'0 0.0
2015-Jul-20 19:32N 44°19' E 008°30'0 0.0
2015-Jul-20 18:32N 44°19' E 008°30'0 0.0
2015-Jul-20 17:32N 44°19' E 008°30'0 0.0
2015-Jul-20 16:32N 44°19' E 008°30'0 0.0
2015-Jul-20 15:32N 44°19' E 008°30'0 0.0
2015-Jul-20 14:32N 44°19' E 008°30'0 0.0
2015-Jul-20 13:32N 44°19' E 008°30'0 0.0
2015-Jul-20 12:23N 44°19' E 008°30'0 0.0
2015-Jul-20 11:26N 44°19' E 008°30'0 0.0
2015-Jul-20 10:23N 44°19' E 008°30'0 0.0
2015-Jul-20 09:26N 44°19' E 008°30'0 0.0
2015-Jul-20 08:29N 44°19' E 008°30'0 0.0
2015-Jul-20 07:32N 44°19' E 008°30'0 0.0
2015-Jul-20 06:32N 44°19' E 008°30'0 0.0
2015-Jul-20 05:32N 44°19' E 008°30'0 0.0
2015-Jul-20 04:32N 44°19' E 008°30'  

Dump ship's entire track history